Time;durP1;ratioP1;P1;durP2;ratioP2;P2;SDS_P1;SDS_P2;PMS_P1;PMS_P2;Temp;Humidity;BMP_temperature;BMP_pressure;BME280_temperature;BME280_humidity;BME280_pressure;Samples;Min_cycle;Max_cycle;Signal;HPM_P1;HPM_P2
2022/11/11 00:01:13;;;;;;;9.68;4.40;;;;;;;6.92;97.04;102645.25;4987056;28;20046;-80
2022/11/11 00:03:57;;;;;;;11.55;4.68;;;;;;;6.90;97.40;102656.59;4988604;28;20049;-81
2022/11/11 00:06:41;;;;;;;9.02;4.20;;;;;;;6.91;97.32;102663.41;4996680;28;20052;-81
2022/11/11 00:09:25;;;;;;;8.32;4.15;;;;;;;6.91;97.52;102663.41;4994827;28;20080;-82
2022/11/11 00:12:09;;;;;;;7.93;3.35;;;;;;;6.90;97.49;102672.06;4986584;28;20126;-81
2022/11/11 00:14:53;;;;;;;7.03;2.95;;;;;;;6.86;97.01;102668.00;4979664;28;20053;-81
2022/11/11 00:26:46;;;;;;;8.50;2.50;;;;;;;6.68;97.22;102660.34;4990654;28;20462;-81
2022/11/11 00:29:30;;;;;;;6.07;3.90;;;;;;;6.62;97.09;102656.38;4985703;28;20862;-82
2022/11/11 00:32:25;;;;;;;7.07;4.18;;;;;;;6.59;97.03;102651.41;4983842;28;20112;-82
2022/11/11 00:38:44;;;;;;;6.43;3.35;;;;;;;6.53;96.66;102641.41;4984803;28;20049;-81
2022/11/11 00:41:19;;;;;;;9.05;3.28;;;;;;;6.47;96.90;102643.50;4991569;28;20036;-82
2022/11/11 00:44:04;;;;;;;7.07;3.13;;;;;;;6.41;97.01;102640.34;4983661;28;20510;-80
2022/11/11 00:52:54;;;;;;;9.82;4.32;;;;;;;6.28;97.47;102641.09;4987130;28;20081;-81
2022/11/11 00:55:39;;;;;;;10.50;3.85;;;;;;;6.27;97.24;102653.13;4988289;28;20407;-81
2022/11/11 00:58:23;;;;;;;10.80;5.50;;;;;;;6.26;97.25;102655.81;4984246;28;20104;-82
2022/11/11 01:01:07;;;;;;;9.15;4.75;;;;;;;6.22;97.02;102663.69;4984423;28;20612;-81
2022/11/11 01:03:51;;;;;;;8.25;4.90;;;;;;;6.21;97.45;102666.34;4988101;28;20061;-80
2022/11/11 01:06:36;;;;;;;11.52;4.82;;;;;;;6.19;97.35;102674.16;4977501;28;20543;-81
2022/11/11 01:09:20;;;;;;;9.95;5.28;;;;;;;6.18;97.00;102682.00;4978578;28;20118;-81
2022/11/11 01:12:04;;;;;;;15.82;5.15;;;;;;;6.20;97.12;102683.56;4986307;28;20077;-81
2022/11/11 01:14:48;;;;;;;8.48;4.72;;;;;;;6.20;96.82;102675.81;4985521;28;20057;-81
2022/11/11 01:17:32;;;;;;;9.57;4.30;;;;;;;6.18;97.19;102674.25;4981956;28;20137;-81
2022/11/11 01:20:16;;;;;;;12.27;3.88;;;;;;;6.16;97.19;102684.63;4984408;28;20104;-81
2022/11/11 01:23:00;;;;;;;11.82;3.60;;;;;;;6.13;97.29;102677.06;4983224;28;20048;-81
2022/11/11 01:25:45;;;;;;;8.18;3.47;;;;;;;6.07;97.02;102677.41;4982351;28;20045;-80
2022/11/11 01:28:31;;;;;;;7.15;3.22;;;;;;;6.03;97.17;102668.16;4982316;28;20130;-81
2022/11/11 01:31:16;;;;;;;6.57;3.28;;;;;;;5.98;97.53;102670.16;4984274;28;20045;-80
2022/11/11 01:34:01;;;;;;;7.50;3.25;;;;;;;5.95;98.21;102676.31;4991756;28;20057;-81
2022/11/11 01:36:45;;;;;;;7.15;3.88;;;;;;;5.92;97.88;102676.41;4995009;28;20177;-81
2022/11/11 01:39:29;;;;;;;9.38;3.28;;;;;;;5.94;98.80;102686.66;4986825;28;20473;-81
2022/11/11 01:42:13;;;;;;;5.50;3.10;;;;;;;5.92;98.68;102684.16;4989441;28;20054;-81
2022/11/11 01:44:57;;;;;;;10.18;3.83;;;;;;;5.91;98.72;102690.19;4990607;28;20050;-82
2022/11/11 01:51:10;;;;;;;5.40;3.30;;;;;;;5.92;98.94;102689.28;4928350;29;20091;-82
2022/11/11 01:54:01;;;;;;;6.65;3.17;;;;;;;5.90;98.92;102680.81;4918507;29;20053;-81
2022/11/11 01:56:48;;;;;;;6.22;3.20;;;;;;;5.87;98.90;102695.59;4983075;28;20049;-81
2022/11/11 01:59:35;;;;;;;6.60;3.40;;;;;;;5.82;99.29;102695.81;4991901;28;20488;-81
2022/11/11 02:02:25;;;;;;;6.28;3.13;;;;;;;5.82;99.79;102694.09;4990665;28;20045;-82
2022/11/11 02:08:31;;;;;;;7.93;3.22;;;;;;;5.78;100.00;102695.16;4993730;28;20682;-81
2022/11/11 02:14:34;;;;;;;7.45;3.55;;;;;;;5.77;100.00;102695.25;4993060;28;20092;-82
2022/11/11 02:14:34;;;;;;;6.70;3.47;;;;;;;5.75;100.00;102692.72;4985899;28;20057;-81
2022/11/11 02:17:19;;;;;;;8.57;3.55;;;;;;;5.73;100.00;102691.16;4984586;28;20057;-82
2022/11/11 02:20:04;;;;;;;6.55;3.55;;;;;;;5.69;100.00;102687.91;4992643;28;20411;-80
2022/11/11 02:23:15;;;;;;;10.80;3.95;;;;;;;5.68;100.00;102683.66;4987403;28;20100;-81
2022/11/11 02:26:02;;;;;;;6.60;3.80;;;;;;;5.66;100.00;102677.75;4983958;28;20057;-82
2022/11/11 02:28:46;;;;;;;8.82;3.95;;;;;;;5.64;100.00;102682.16;4984400;28;20054;-82
2022/11/11 02:31:31;;;;;;;8.85;3.63;;;;;;;5.62;100.00;102687.38;4985299;28;20330;-81
2022/11/11 02:34:15;;;;;;;7.25;3.78;;;;;;;5.61;100.00;102680.56;4988947;28;20049;-81
2022/11/11 02:37:01;;;;;;;10.73;4.05;;;;;;;5.60;100.00;102680.66;4991099;28;20141;-81
2022/11/11 02:39:49;;;;;;;10.55;3.50;;;;;;;5.60;100.00;102685.78;4981989;28;20052;-81
2022/11/11 02:42:34;;;;;;;8.45;3.55;;;;;;;5.61;100.00;102677.16;4985774;28;20696;-82
2022/11/11 02:45:18;;;;;;;13.25;3.80;;;;;;;5.59;100.00;102679.78;4991562;28;20050;-82
2022/11/11 02:48:02;;;;;;;12.63;3.35;;;;;;;5.56;100.00;102676.56;4992127;28;20049;-82
2022/11/11 02:50:46;;;;;;;10.27;3.72;;;;;;;5.54;100.00;102679.22;4991551;28;20049;-82
2022/11/11 02:53:30;;;;;;;11.05;3.97;;;;;;;5.54;100.00;102684.34;4984225;28;20069;-82
2022/11/11 02:57:05;;;;;;;8.77;3.50;;;;;;;5.53;100.00;102698.13;4994305;28;20060;-82
2022/11/11 02:59:20;;;;;;;15.20;3.70;;;;;;;5.53;100.00;102697.31;4990185;28;20065;-82
2022/11/11 03:02:05;;;;;;;8.27;3.67;;;;;;;5.49;100.00;102685.50;4990383;28;20096;-82
2022/11/11 03:04:51;;;;;;;6.60;3.72;;;;;;;5.48;100.00;102684.66;4982380;28;20742;-81
2022/11/11 03:07:35;;;;;;;10.45;3.10;;;;;;;5.46;100.00;102684.75;4990148;28;20119;-82
2022/11/11 03:10:19;;;;;;;9.38;3.45;;;;;;;5.43;100.00;102679.75;4997362;28;20054;-82
2022/11/11 03:13:03;;;;;;;9.07;3.50;;;;;;;5.42;100.00;102692.69;4989263;28;20033;-83
2022/11/11 03:15:48;;;;;;;6.35;3.28;;;;;;;5.42;100.00;102692.69;4993422;28;20049;-82
2022/11/11 03:18:32;;;;;;;9.07;3.15;;;;;;;5.40;100.00;102679.88;4993795;28;20657;-82
2022/11/11 03:21:16;;;;;;;7.05;3.45;;;;;;;5.38;100.00;102675.75;4991327;28;20089;-82
2022/11/11 03:24:00;;;;;;;10.82;3.47;;;;;;;5.33;99.99;102675.97;4990244;28;20155;-82
2022/11/11 03:26:44;;;;;;;7.03;3.33;;;;;;;5.29;99.54;102681.34;4985718;28;20053;-82
2022/11/11 03:29:28;;;;;;;13.32;3.40;;;;;;;5.22;99.30;102679.06;4986850;28;20057;-82
2022/11/11 03:32:12;;;;;;;9.50;3.47;;;;;;;5.19;99.31;102671.50;4987126;28;20053;-82
2022/11/11 03:34:56;;;;;;;9.48;3.63;;;;;;;5.16;99.65;102665.66;4990286;28;20049;-82
2022/11/11 03:40:44;;;;;;;5.65;3.25;;;;;;;5.08;100.00;102655.75;4985054;28;20045;-82
2022/11/11 03:43:31;;;;;;;5.35;3.03;;;;;;;5.03;100.00;102656.00;4990633;28;20085;-81
2022/11/11 03:46:15;;;;;;;9.73;3.38;;;;;;;5.02;100.00;102658.63;4990202;28;20116;-82
2022/11/11 03:48:59;;;;;;;6.93;3.50;;;;;;;5.00;100.00;102661.28;4989314;28;20081;-81
2022/11/11 03:51:43;;;;;;;8.77;3.42;;;;;;;4.99;100.00;102662.19;4998843;28;20805;-82
2022/11/11 03:54:27;;;;;;;9.02;3.33;;;;;;;4.99;100.00;102663.91;4993837;28;20049;-82
2022/11/11 03:57:29;;;;;;;7.65;3.17;;;;;;;4.98;100.00;102659.69;4984105;28;20049;-82
2022/11/11 04:00:16;;;;;;;9.75;3.53;;;;;;;4.91;100.00;102666.84;4989027;28;20495;-80
2022/11/11 04:12:17;;;;;;;12.68;4.05;;;;;;;4.94;100.00;102665.88;4991570;28;20133;-81
2022/11/11 04:18:04;;;;;;;12.40;3.45;;;;;;;4.81;100.00;102670.78;4990736;28;20088;-83
2022/11/11 04:23:51;;;;;;;6.33;4.10;;;;;;;4.82;100.00;102680.13;4985196;28;20116;-81
2022/11/11 04:26:35;;;;;;;8.15;3.10;;;;;;;4.82;100.00;102688.72;4989463;28;20053;-81
2022/11/11 04:29:28;;;;;;;8.10;3.58;;;;;;;4.80;100.00;102679.38;4990663;28;20045;-82
2022/11/11 04:35:17;;;;;;;12.48;3.42;;;;;;;4.78;100.00;102687.16;4987939;28;20053;-80
2022/11/11 04:41:07;;;;;;;12.63;4.63;;;;;;;4.69;100.00;102687.63;4990480;28;20057;-81
2022/11/11 04:46:54;;;;;;;9.43;3.80;;;;;;;4.57;100.00;102701.03;4988013;28;20076;-80
2022/11/11 04:49:38;;;;;;;10.25;4.13;;;;;;;4.52;100.00;102698.69;4987188;28;20475;-82
2022/11/11 04:52:25;;;;;;;14.95;4.32;;;;;;;4.49;100.00;102693.66;4990841;28;20046;-81
2022/11/11 04:58:12;;;;;;;10.98;3.58;;;;;;;4.41;100.00;102700.91;4989107;28;20073;-80
2022/11/11 05:00:56;;;;;;;7.43;3.75;;;;;;;4.40;100.00;102700.03;4984699;28;20058;-80
2022/11/11 05:03:40;;;;;;;13.55;4.18;;;;;;;4.39;100.00;102694.97;4988210;28;20141;-81
2022/11/11 05:09:27;;;;;;;12.60;4.57;;;;;;;4.34;100.00;102677.22;4986744;28;20050;-81
2022/11/11 05:12:11;;;;;;;11.93;4.72;;;;;;;4.35;100.00;102680.59;4983746;28;20053;-80
2022/11/11 05:21:19;;;;;;;15.98;7.60;;;;;;;4.31;100.00;102674.78;4989193;28;20080;-81
2022/11/11 05:27:06;;;;;;;10.43;4.70;;;;;;;4.31;100.00;102681.66;4987784;28;20046;-81
2022/11/11 05:29:50;;;;;;;11.90;4.63;;;;;;;4.28;100.00;102690.34;4988724;28;20475;-81
2022/11/11 05:32:34;;;;;;;10.85;5.15;;;;;;;4.27;100.00;102686.91;4984109;28;20053;-80
2022/11/11 05:35:19;;;;;;;10.27;5.30;;;;;;;4.26;100.00;102687.84;4990966;28;20100;-81
2022/11/11 05:38:21;;;;;;;10.80;4.82;;;;;;;4.28;100.00;102685.19;4992005;28;20558;-81
2022/11/11 05:41:07;;;;;;;16.50;5.72;;;;;;;4.25;100.00;102693.84;4987692;28;20053;-81
2022/11/11 05:43:51;;;;;;;10.82;4.32;;;;;;;4.22;100.00;102695.72;4991083;28;20061;-81
2022/11/11 05:46:35;;;;;;;11.23;5.05;;;;;;;4.20;100.00;102702.66;4987889;28;20052;-81
2022/11/11 05:49:19;;;;;;;9.77;4.75;;;;;;;4.18;100.00;102696.78;4984069;28;20084;-81
2022/11/11 05:52:03;;;;;;;8.50;4.97;;;;;;;4.17;100.00;102705.38;4988200;28;20045;-81
2022/11/11 05:54:47;;;;;;;12.13;7.45;;;;;;;4.14;100.00;102714.03;4987446;28;20065;-80
2022/11/11 05:57:32;;;;;;;11.98;6.35;;;;;;;4.11;100.00;102711.63;4994052;28;20053;-80
2022/11/11 06:00:16;;;;;;;12.02;6.15;;;;;;;4.11;100.00;102721.91;4996929;28;20085;-79
2022/11/11 06:03:03;;;;;;;7.97;4.45;;;;;;;4.10;100.00;102717.66;5002984;28;20044;-79
2022/11/11 06:05:47;;;;;;;20.38;6.18;;;;;;;4.06;100.00;102721.25;4999759;28;20077;-79
2022/11/11 06:08:31;;;;;;;11.30;5.50;;;;;;;4.05;100.00;102717.00;5001664;28;20065;-82
2022/11/11 06:11:18;;;;;;;13.88;6.60;;;;;;;4.09;100.00;102724.53;5002610;28;20441;-82
2022/11/11 06:14:02;;;;;;;9.93;5.20;;;;;;;4.15;100.00;102717.47;4995863;28;20041;-82
2022/11/11 06:16:46;;;;;;;14.70;6.70;;;;;;;4.09;100.00;102724.53;4998264;28;20100;-82
2022/11/11 06:19:31;;;;;;;21.33;10.70;;;;;;;4.09;100.00;102726.28;5003098;28;20109;-83
2022/11/11 06:22:54;;;;;;;17.45;6.72;;;;;;;4.11;100.00;102724.47;4998550;28;20052;-82
2022/11/11 06:28:22;;;;;;;21.58;8.80;;;;;;;4.12;100.00;102727.84;4993737;28;20064;-82
2022/11/11 06:31:08;;;;;;;11.68;5.80;;;;;;;4.16;100.00;102722.50;4997365;28;20053;-82
2022/11/11 06:33:53;;;;;;;16.65;5.75;;;;;;;4.16;100.00;102729.38;4997013;28;20052;-80
2022/11/11 06:36:37;;;;;;;15.40;7.57;;;;;;;4.15;100.00;102727.75;4997799;28;20053;-83
2022/11/11 06:39:21;;;;;;;12.77;5.68;;;;;;;4.21;100.00;102742.88;4998587;28;20768;-82
2022/11/11 06:42:05;;;;;;;15.18;5.95;;;;;;;4.21;100.00;102746.25;4999016;28;20096;-81
2022/11/11 06:44:49;;;;;;;11.82;7.03;;;;;;;4.21;100.00;102755.72;4995409;28;20100;-84
2022/11/11 06:47:33;;;;;;;15.15;7.35;;;;;;;4.22;100.00;102754.78;4985721;28;20514;-81
2022/11/11 06:50:17;;;;;;;15.77;7.88;;;;;;;4.21;100.00;102764.25;4986611;28;20136;-81
2022/11/11 06:53:06;;;;;;;15.27;8.27;;;;;;;4.21;100.00;102763.41;4994471;28;20518;-81
2022/11/11 06:55:52;;;;;;;19.65;8.68;;;;;;;4.22;100.00;102765.06;4989944;28;20114;-81
2022/11/11 06:58:35;;;;;;;24.10;8.68;;;;;;;4.22;100.00;102763.34;4993602;28;20061;-83
2022/11/11 07:01:19;;;;;;;21.90;7.75;;;;;;;4.21;100.00;102771.94;5014266;28;20394;-81
2022/11/11 07:04:05;;;;;;;13.13;7.05;;;;;;;4.22;100.00;102771.06;5005192;28;20058;-81
2022/11/11 07:07:01;;;;;;;17.27;6.68;;;;;;;4.40;100.00;102763.44;5001206;28;20118;-81
2022/11/11 07:10:14;;;;;;;18.42;5.57;;;;;;;4.32;100.00;102763.78;5005426;28;20049;-82
2022/11/11 07:12:58;;;;;;;15.40;5.77;;;;;;;4.44;100.00;102767.53;5002170;28;20089;-81
2022/11/11 07:15:45;;;;;;;9.63;5.35;;;;;;;4.38;100.00;102766.06;5004104;28;20068;-81
2022/11/11 07:18:29;;;;;;;15.90;5.60;;;;;;;4.36;100.00;102773.00;5004663;28;20260;-81
2022/11/11 07:21:13;;;;;;;16.00;6.15;;;;;;;4.34;100.00;102782.53;4999953;28;20045;-82
2022/11/11 07:23:57;;;;;;;15.98;8.85;;;;;;;4.37;100.00;102784.97;4995123;28;20100;-81
2022/11/11 07:26:41;;;;;;;25.58;9.82;;;;;;;4.41;100.00;102776.22;5005551;28;20470;-79
2022/11/11 07:29:28;;;;;;;18.27;7.78;;;;;;;4.44;100.00;102786.34;5000560;28;20559;-80
2022/11/11 07:32:12;;;;;;;15.10;6.75;;;;;;;4.51;100.00;102794.63;4993304;28;20052;-82
2022/11/11 07:34:55;;;;;;;15.43;6.72;;;;;;;4.56;100.00;102797.84;5004744;28;20488;-82
2022/11/11 07:37:40;;;;;;;14.23;6.68;;;;;;;4.76;100.00;102783.25;4998239;28;20045;-81
2022/11/11 07:40:25;;;;;;;12.65;6.05;;;;;;;4.82;100.00;102788.09;4995232;28;20133;-80
2022/11/11 07:43:09;;;;;;;14.30;7.13;;;;;;;4.88;100.00;102790.41;4994734;28;20043;-81
2022/11/11 07:45:53;;;;;;;18.23;6.15;;;;;;;4.97;100.00;102792.56;4996744;28;20514;-82
2022/11/11 07:48:37;;;;;;;12.65;5.80;;;;;;;5.03;100.00;102794.03;4989322;28;20114;-83
2022/11/11 07:51:21;;;;;;;13.48;6.50;;;;;;;5.15;100.00;102800.31;4996556;28;20069;-81
2022/11/11 07:54:05;;;;;;;14.18;5.55;;;;;;;5.19;100.00;102807.00;4991297;28;20043;-79
2022/11/11 07:56:49;;;;;;;10.57;5.55;;;;;;;5.27;100.00;102802.31;4992601;28;20522;-82
2022/11/11 07:59:33;;;;;;;16.25;7.82;;;;;;;5.33;100.00;102806.31;4994688;28;20065;-82
2022/11/11 08:02:17;;;;;;;16.80;6.32;;;;;;;5.49;100.00;102806.44;4996074;28;20053;-82
2022/11/11 08:05:02;;;;;;;13.52;5.95;;;;;;;5.60;100.00;102811.91;4990820;28;20611;-82
2022/11/11 08:07:47;;;;;;;19.15;6.72;;;;;;;5.64;100.00;102811.66;4985778;28;20085;-80
2022/11/11 08:10:32;;;;;;;17.20;6.60;;;;;;;5.75;100.00;102816.31;4992225;28;20683;-82
2022/11/11 08:16:18;;;;;;;14.68;6.03;;;;;;;5.95;100.00;102815.38;5002273;28;20092;-82
2022/11/11 08:19:02;;;;;;;15.68;5.85;;;;;;;5.96;100.00;102814.44;4991308;28;20104;-83
2022/11/11 08:21:46;;;;;;;14.00;5.90;;;;;;;6.01;100.00;102812.47;4988366;28;20081;-82
2022/11/11 08:24:30;;;;;;;19.15;8.05;;;;;;;6.13;100.00;102812.75;4992174;28;20057;-83
2022/11/11 08:27:14;;;;;;;13.75;6.05;;;;;;;6.35;100.00;102813.34;4984621;28;20148;-84
2022/11/11 08:29:59;;;;;;;9.65;5.32;;;;;;;6.41;100.00;102814.75;4985515;28;20048;-83
2022/11/11 08:32:43;;;;;;;9.60;5.13;;;;;;;6.46;100.00;102809.34;4993015;28;20052;-82
2022/11/11 08:35:28;;;;;;;9.77;5.30;;;;;;;6.60;100.00;102799.16;4987294;28;20092;-82
2022/11/11 08:38:13;;;;;;;13.18;5.43;;;;;;;6.71;100.00;102798.59;4985660;28;20474;-81
2022/11/11 08:41:01;;;;;;;14.27;5.13;;;;;;;6.77;100.00;102799.09;4992573;28;20057;-82
2022/11/11 08:43:45;;;;;;;13.90;5.13;;;;;;;6.96;100.00;102800.69;4994838;28;20129;-81
2022/11/11 08:46:30;;;;;;;10.73;4.82;;;;;;;7.08;99.96;102801.75;5003176;28;20057;-83
2022/11/11 08:49:15;;;;;;;18.00;5.22;;;;;;;7.14;99.76;102797.09;5002201;28;20534;-83
2022/11/11 08:51:59;;;;;;;10.75;4.72;;;;;;;7.39;98.63;102795.72;4992727;28;20041;-83
2022/11/11 08:54:43;;;;;;;11.52;4.57;;;;;;;7.41;97.90;102792.13;4988881;28;20077;-81
2022/11/11 08:57:27;;;;;;;12.65;3.95;;;;;;;7.45;97.43;102789.38;4994910;28;20048;-80
2022/11/11 09:00:13;;;;;;;9.52;3.72;;;;;;;7.55;97.72;102793.94;4983513;28;20081;-82
2022/11/11 09:03:05;;;;;;;9.95;4.30;;;;;;;7.69;96.44;102797.47;4987884;28;20036;-81
2022/11/11 09:05:49;;;;;;;7.63;3.88;;;;;;;7.86;96.22;102796.50;4996222;28;20053;-82
2022/11/11 09:08:33;;;;;;;11.25;3.90;;;;;;;7.93;96.48;102792.63;4993860;28;20046;-82
2022/11/11 09:11:17;;;;;;;7.93;4.07;;;;;;;8.08;95.52;102793.47;4990759;28;20049;-83
2022/11/11 09:14:01;;;;;;;13.48;4.57;;;;;;;8.17;94.39;102795.50;4998149;28;20104;-81
2022/11/11 09:16:45;;;;;;;9.10;4.47;;;;;;;8.26;94.32;102807.88;4993319;28;20053;-83
2022/11/11 09:19:29;;;;;;;11.13;4.60;;;;;;;8.30;95.06;102804.19;4995675;28;20041;-82
2022/11/11 09:22:13;;;;;;;10.77;3.90;;;;;;;8.47;93.68;102807.56;4987600;28;20045;-84
2022/11/11 09:24:57;;;;;;;10.25;3.38;;;;;;;8.54;92.72;102809.66;4997621;28;20045;-82
2022/11/11 09:27:42;;;;;;;11.70;3.92;;;;;;;8.62;92.53;102809.19;4995520;28;20044;-83
2022/11/11 09:30:27;;;;;;;9.52;3.58;;;;;;;8.65;92.36;102809.00;4990941;28;20068;-84
2022/11/11 09:33:14;;;;;;;9.93;4.20;;;;;;;8.69;92.80;102802.72;4988454;28;20052;-83
2022/11/11 09:35:58;;;;;;;8.32;3.88;;;;;;;8.71;93.46;102800.88;4989610;28;20077;-82
2022/11/11 09:38:42;;;;;;;10.75;3.60;;;;;;;8.91;93.77;102806.56;4990841;28;20120;-82
2022/11/11 09:42:06;;;;;;;11.45;4.15;;;;;;;9.00;93.00;102807.75;4993501;28;20084;-82
2022/11/11 09:44:59;;;;;;;9.68;4.20;;;;;;;9.22;91.38;102800.28;4986902;28;20676;-82
2022/11/11 09:47:52;;;;;;;10.20;3.38;;;;;;;9.22;90.64;102810.63;4990067;28;20632;-82
2022/11/11 09:50:40;;;;;;;10.20;3.65;;;;;;;9.33;91.27;102810.78;4990364;28;20473;-83
2022/11/11 09:53:36;;;;;;;7.15;3.35;;;;;;;9.42;90.47;102808.50;5000138;28;20057;-82
2022/11/11 09:56:23;;;;;;;6.03;3.28;;;;;;;9.51;90.78;102813.94;4996496;28;20061;-83
2022/11/11 09:59:15;;;;;;;11.52;3.78;;;;;;;9.57;90.78;102809.28;4992059;28;20080;-82
2022/11/11 10:02:00;;;;;;;9.95;3.25;;;;;;;9.63;90.69;102812.31;4988543;28;20053;-83
2022/11/11 10:04:56;;;;;;;12.02;3.47;;;;;;;9.77;88.88;102818.34;4994726;28;20132;-85
2022/11/11 10:07:49;;;;;;;8.60;3.42;;;;;;;9.80;89.66;102821.56;4986203;28;20182;-83
2022/11/11 10:10:41;;;;;;;9.57;3.28;;;;;;;9.96;87.18;102823.94;5001695;28;20091;-85
2022/11/11 10:13:29;;;;;;;11.43;2.88;;;;;;;10.13;84.93;102821.06;4991584;28;20467;-82
2022/11/11 10:16:37;;;;;;;10.23;3.03;;;;;;;10.23;85.62;102817.84;4993355;28;20099;-84
2022/11/11 10:19:29;;;;;;;13.43;2.75;;;;;;;10.34;84.31;102825.75;4996826;28;20101;-83
2022/11/11 10:23:01;;;;;;;6.07;2.50;;;;;;;10.46;82.62;102824.91;4987577;28;20124;-86
2022/11/11 10:25:52;;;;;;;9.73;3.40;;;;;;;10.52;82.59;102829.66;4990741;28;20041;-83
2022/11/11 10:28:36;;;;;;;8.07;2.58;;;;;;;10.66;81.17;102826.13;5001551;28;20585;-81
2022/11/11 10:31:23;;;;;;;5.68;2.17;;;;;;;10.50;82.58;102828.13;4986942;28;20521;-84
2022/11/11 10:34:12;;;;;;;9.98;2.60;;;;;;;10.67;81.51;102822.56;4985683;28;20181;-82
2022/11/11 10:36:58;;;;;;;6.70;2.22;;;;;;;10.77;80.69;102829.72;4984526;28;20840;-82
2022/11/11 10:39:47;;;;;;;10.27;2.40;;;;;;;10.67;80.76;102825.16;4987841;28;20407;-82
2022/11/11 10:42:31;;;;;;;6.78;2.55;;;;;;;10.86;79.84;102824.69;4986924;28;20084;-83
2022/11/11 10:45:26;;;;;;;5.22;2.30;;;;;;;10.94;80.00;102823.34;4983667;28;20526;-86
2022/11/11 10:48:19;;;;;;;11.75;2.20;;;;;;;10.93;79.63;102824.28;4984450;28;20128;-82
2022/11/11 10:51:05;;;;;;;16.75;2.58;;;;;;;10.87;80.99;102823.78;4986752;28;22443;-84
2022/11/11 10:54:05;;;;;;;10.15;2.97;;;;;;;10.95;81.03;102823.22;4992394;28;20217;-85
2022/11/11 10:57:04;;;;;;;8.13;2.25;;;;;;;11.03;80.30;102815.72;4986077;28;20085;-85
2022/11/11 10:59:51;;;;;;;11.43;3.03;;;;;;;11.17;78.98;102827.72;4989376;28;20053;-82
2022/11/11 11:03:06;;;;;;;9.25;2.35;;;;;;;11.22;79.72;102815.22;4988272;28;20520;-84
2022/11/11 11:06:11;;;;;;;12.38;2.22;;;;;;;11.27;79.95;102820.91;4992245;28;20049;-84
2022/11/11 11:09:14;;;;;;;7.13;2.42;;;;;;;11.29;79.53;102811.25;4997662;28;20092;-83
2022/11/11 11:12:21;;;;;;;7.10;2.20;;;;;;;11.33;79.43;102813.63;4999739;28;20062;-83
2022/11/11 11:15:19;;;;;;;6.18;2.40;;;;;;;11.38;80.65;102819.31;4986506;28;20038;-83
2022/11/11 11:18:14;;;;;;;9.20;3.70;;;;;;;11.40;83.16;102817.44;4990637;28;20049;-82
2022/11/11 11:21:00;;;;;;;11.02;3.53;;;;;;;11.39;81.75;102819.19;4996309;28;20130;-82
2022/11/11 11:23:46;;;;;;;15.23;3.60;;;;;;;11.54;81.65;102819.00;4990420;28;20088;-83
2022/11/11 11:26:43;;;;;;;9.85;4.65;;;;;;;11.49;83.18;102817.59;4993095;28;20041;-84
2022/11/11 11:29:37;;;;;;;12.77;4.07;;;;;;;11.79;82.51;102816.25;4987446;28;20053;-80
2022/11/11 11:32:30;;;;;;;12.77;4.93;;;;;;;11.67;83.17;102815.38;4989039;28;20085;-84
2022/11/11 11:35:37;;;;;;;14.87;4.33;;;;;;;11.59;84.81;102822.09;4989582;28;20049;-84
2022/11/11 11:39:03;;;;;;;14.15;5.97;;;;;;;11.50;85.25;102821.81;4987338;28;20061;-80
2022/11/11 11:41:50;;;;;;;21.23;7.22;;;;;;;11.34;86.12;102815.25;4998274;28;20065;-83
2022/11/11 11:44:38;;;;;;;12.85;6.05;;;;;;;11.36;86.33;102819.44;4985654;28;20077;-83
2022/11/11 11:47:36;;;;;;;16.67;5.95;;;;;;;11.26;86.73;102813.22;4991692;28;20044;-82
2022/11/11 11:50:25;;;;;;;13.00;6.38;;;;;;;11.27;86.95;102815.72;4988928;28;20053;-83
2022/11/11 11:53:25;;;;;;;16.60;6.35;;;;;;;11.28;86.69;102803.56;4990507;28;20041;-81
2022/11/11 11:56:19;;;;;;;19.00;6.97;;;;;;;11.31;87.23;102803.34;4999427;28;20050;-83
2022/11/11 11:59:41;;;;;;;17.38;6.55;;;;;;;11.31;86.85;102798.16;4990507;28;20053;-87
2022/11/11 12:02:48;;;;;;;15.30;6.93;;;;;;;11.30;86.12;102791.28;5000862;28;20077;-83
2022/11/11 12:05:39;;;;;;;14.40;5.85;;;;;;;11.39;85.43;102787.19;4995289;28;20074;-81
2022/11/11 12:08:36;;;;;;;14.05;5.82;;;;;;;11.56;85.08;102785.94;5000855;28;20053;-82
2022/11/11 12:11:28;;;;;;;18.02;5.75;;;;;;;11.61;84.14;102786.44;4990869;28;20053;-84
2022/11/11 12:14:31;;;;;;;13.57;5.97;;;;;;;11.69;83.79;102781.50;4996000;28;20056;-87
2022/11/11 12:17:39;;;;;;;22.40;12.50;;;;;;;11.50;85.00;102779.44;4995544;28;20057;-82
2022/11/11 12:20:31;;;;;;;13.90;5.40;;;;;;;11.52;85.00;102787.13;4991878;28;20423;-82
2022/11/11 12:23:26;;;;;;;14.63;5.47;;;;;;;11.55;84.06;102782.53;4990413;28;20065;-83
2022/11/11 12:26:36;;;;;;;15.07;6.03;;;;;;;11.67;83.20;102776.41;4995211;28;20076;-82
2022/11/11 12:29:54;;;;;;;13.73;5.20;;;;;;;11.61;83.97;102771.66;4999207;28;20077;-83
2022/11/11 12:32:55;;;;;;;10.63;5.13;;;;;;;11.58;84.41;102766.69;4997224;28;20049;-82
2022/11/11 12:36:01;;;;;;;17.27;5.97;;;;;;;11.64;84.22;102765.41;4993978;28;20154;-83
2022/11/11 12:38:57;;;;;;;9.32;4.82;;;;;;;11.72;84.25;102763.06;5002963;28;20755;-83
2022/11/11 12:41:57;;;;;;;9.77;5.05;;;;;;;11.75;83.75;102752.44;4989928;28;20057;-81
2022/11/11 12:44:59;;;;;;;15.93;5.28;;;;;;;11.82;82.51;102750.22;4994645;28;20041;-83
2022/11/11 12:48:00;;;;;;;17.00;4.78;;;;;;;11.81;82.31;102754.59;5000471;28;20037;-82
2022/11/11 12:50:57;;;;;;;13.68;4.40;;;;;;;11.87;82.29;102754.13;4995973;28;20053;-82
2022/11/11 12:54:22;;;;;;;11.63;4.13;;;;;;;11.92;80.96;102751.19;5011226;28;20511;-82
2022/11/11 12:57:50;;;;;;;9.95;4.15;;;;;;;12.02;80.43;102752.16;4976671;28;20048;-82
2022/11/11 13:00:47;;;;;;;11.23;3.60;;;;;;;12.16;80.02;102752.84;5001151;28;20060;-82
2022/11/11 13:03:49;;;;;;;11.45;3.72;;;;;;;12.08;80.57;102748.25;4990768;28;20419;-82
2022/11/11 13:06:55;;;;;;;11.45;3.63;;;;;;;12.05;80.14;102736.31;4987062;28;20048;-82
2022/11/11 13:10:12;;;;;;;6.47;3.22;;;;;;;12.12;80.45;102749.66;4994469;28;20746;-83
2022/11/11 13:13:05;;;;;;;8.35;2.92;;;;;;;12.29;78.45;102743.16;4987524;28;20193;-83
2022/11/11 13:15:49;;;;;;;22.95;4.30;;;;;;;12.42;77.27;102743.00;4990055;28;20049;-82
2022/11/11 13:18:52;;;;;;;5.88;3.08;;;;;;;12.45;78.11;102745.34;5002895;28;20056;-83
2022/11/11 13:21:42;;;;;;;6.93;3.20;;;;;;;12.54;76.54;102744.63;4985151;28;20057;-84
2022/11/11 13:24:27;;;;;;;10.50;4.05;;;;;;;12.48;78.50;102739.09;4994571;28;20593;-83
2022/11/11 13:27:39;;;;;;;12.43;3.53;;;;;;;12.61;79.13;102742.38;4994848;28;20064;-83
2022/11/11 13:30:57;;;;;;;9.90;4.38;;;;;;;12.60;78.77;102743.31;4995231;28;20052;-83
2022/11/11 13:33:45;;;;;;;11.75;3.28;;;;;;;12.73;77.63;102737.97;4990949;28;20061;-83
2022/11/11 13:36:40;;;;;;;8.63;4.20;;;;;;;12.76;76.07;102735.94;4991092;28;20065;-84
2022/11/11 13:39:32;;;;;;;11.48;3.83;;;;;;;12.79;76.48;102732.25;4989437;28;20120;-83
2022/11/11 13:42:26;;;;;;;8.35;2.72;;;;;;;12.74;76.50;102737.03;4991165;28;20041;-82
2022/11/11 13:45:25;;;;;;;8.43;2.85;;;;;;;12.75;76.18;102738.66;4989027;28;20166;-83
2022/11/11 13:48:27;;;;;;;7.70;2.63;;;;;;;12.64;77.80;102745.56;4987136;28;20045;-83
2022/11/11 13:51:18;;;;;;;9.73;2.90;;;;;;;12.64;77.23;102748.19;4990132;28;20049;-83
2022/11/11 13:54:06;;;;;;;5.63;2.45;;;;;;;12.55;78.23;102746.31;4990874;28;20119;-82
2022/11/11 13:56:51;;;;;;;8.00;3.17;;;;;;;12.64;77.55;102742.16;4989071;28;20072;-83
2022/11/11 13:59:39;;;;;;;6.35;2.78;;;;;;;12.73;76.60;102737.97;4992696;28;20463;-82
2022/11/11 14:02:27;;;;;;;7.18;2.88;;;;;;;12.74;76.63;102742.22;4990043;28;20561;-82
2022/11/11 14:05:19;;;;;;;12.32;3.40;;;;;;;12.71;76.82;102737.25;4985143;28;20534;-85
2022/11/11 14:08:03;;;;;;;7.38;3.65;;;;;;;12.61;77.28;102738.00;4991687;28;20052;-82
2022/11/11 14:10:53;;;;;;;10.32;4.55;;;;;;;12.63;77.94;102738.69;4985959;28;20045;-82
2022/11/11 14:13:39;;;;;;;12.98;4.70;;;;;;;12.66;77.80;102735.88;4992966;28;20727;-82
2022/11/11 14:16:35;;;;;;;12.30;5.25;;;;;;;12.74;77.41;102737.03;4985608;28;20081;-82
2022/11/11 14:19:19;;;;;;;9.93;4.35;;;;;;;12.69;77.90;102737.38;4991677;28;20048;-82